Time;durP1;ratioP1;P1;durP2;ratioP2;P2;SDS_P1;SDS_P2;PMS_P1;PMS_P2;Temp;Humidity;BMP_temperature;BMP_pressure;BME280_temperature;BME280_humidity;BME280_pressure;Samples;Min_cycle;Max_cycle;Signal;HPM_P1;HPM_P2
2022/11/17 00:01:23;;;;;;;;;;;14.20;96.00;;;;;;5096715;28;20015;-69
2022/11/17 00:03:49;;;;;;;;;;;14.40;96.10;;;;;;5114551;28;19959;-70
2022/11/17 00:06:15;;;;;;;;;;;14.60;96.20;;;;;;5115200;28;19982;-71
2022/11/17 00:08:41;;;;;;;;;;;;;;;;;;5097889;28;19924;-72
2022/11/17 00:11:07;;;;;;;;;;;14.30;96.10;;;;;;5116416;28;20027;-71
2022/11/17 00:16:17;;;;;;;;;;;;;;;;;;5097167;28;19928;-66
2022/11/17 00:21:27;;;;;;;;;;;14.30;96.10;;;;;;5111963;28;19927;-67
2022/11/17 00:23:56;;;;;;;;;;;14.10;96.00;;;;;;5097964;28;20391;-67
2022/11/17 00:26:22;;;;;;;;;;;14.20;96.00;;;;;;5094327;28;19971;-66
2022/11/17 00:28:55;;;;;;;;;;;14.40;96.00;;;;;;5096066;28;20358;-67
2022/11/17 00:34:05;;;;;;;;;;;14.30;95.90;;;;;;5095980;28;19985;-66
2022/11/17 00:36:38;;;;;;;;;;;14.40;95.90;;;;;;5086052;28;19923;-66
2022/11/17 00:39:03;;;;;;;;;;;14.10;95.80;;;;;;5097756;28;19984;-67
2022/11/17 00:41:29;;;;;;;;;;;;;;;;;;5114837;28;20349;-69
2022/11/17 00:43:55;;;;;;;;;;;14.20;95.80;;;;;;5114720;28;19924;-66
2022/11/17 00:46:21;;;;;;;;;;;14.00;95.70;;;;;;5114393;28;19931;-66
2022/11/17 00:48:47;;;;;;;;;;;14.10;95.70;;;;;;5115803;28;19924;-67
2022/11/17 00:51:12;;;;;;;;;;;14.10;95.70;;;;;;5113851;28;19935;-66
2022/11/17 00:53:38;;;;;;;;;;;14.30;95.70;;;;;;5113151;28;19931;-67
2022/11/17 00:56:04;;;;;;;;;;;14.10;95.60;;;;;;5106422;28;19924;-64
2022/11/17 00:58:29;;;;;;;;;;;14.20;95.60;;;;;;5113048;28;19924;-65
2022/11/17 01:00:55;;;;;;;;;;;14.20;95.60;;;;;;5113614;28;19927;-65
2022/11/17 01:03:21;;;;;;;;;;;13.90;95.50;;;;;;5114174;28;19931;-63
2022/11/17 01:05:46;;;;;;;;;;;14.30;95.60;;;;;;5129429;27;19928;-64
2022/11/17 01:08:12;;;;;;;;;;;14.30;95.60;;;;;;5114411;28;19934;-63
2022/11/17 01:10:38;;;;;;;;;;;14.00;95.50;;;;;;5114127;28;20369;-63
2022/11/17 01:13:04;;;;;;;;;;;14.00;95.40;;;;;;5112359;28;19923;-64
2022/11/17 01:15:30;;;;;;;;;;;;;;;;;;5113320;28;19975;-65
2022/11/17 01:17:55;;;;;;;;;;;14.10;95.40;;;;;;5115197;28;20014;-64
2022/11/17 01:20:21;;;;;;;;;;;14.10;95.40;;;;;;5113347;28;19930;-63
2022/11/17 01:22:47;;;;;;;;;;;13.80;95.30;;;;;;5115373;28;19977;-63
2022/11/17 01:25:12;;;;;;;;;;;14.20;95.40;;;;;;5096807;28;19928;-67
2022/11/17 01:27:38;;;;;;;;;;;;;;;;;;5115033;28;19931;-68
2022/11/17 01:30:04;;;;;;;;;;;14.00;95.40;;;;;;5113853;28;20289;-64
2022/11/17 01:32:30;;;;;;;;;;;13.80;95.30;;;;;;5113078;28;19927;-65
2022/11/17 01:34:55;;;;;;;;;;;14.00;95.30;;;;;;5113510;28;19927;-63
2022/11/17 01:37:22;;;;;;;;;;;;;;;;;;5113537;28;19970;-64
2022/11/17 01:39:48;;;;;;;;;;;14.20;95.40;;;;;;5113087;28;19947;-64
2022/11/17 01:42:15;;;;;;;;;;;14.10;95.30;;;;;;5110695;28;19919;-65
2022/11/17 01:44:40;;;;;;;;;;;14.10;95.30;;;;;;5113432;28;19924;-63
2022/11/17 01:47:06;;;;;;;;;;;;;;;;;;5112342;28;20399;-65
2022/11/17 01:49:32;;;;;;;;;;;14.10;95.30;;;;;;5111509;28;19923;-64
2022/11/17 01:52:02;;;;;;;;;;;14.00;95.30;;;;;;5112394;28;19923;-63
2022/11/17 01:54:27;;;;;;;;;;;14.00;95.20;;;;;;5112279;28;19969;-64
2022/11/17 01:56:54;;;;;;;;;;;13.80;95.20;;;;;;5095651;28;19924;-64
2022/11/17 01:59:19;;;;;;;;;;;14.00;95.20;;;;;;5111192;28;20022;-64
2022/11/17 02:01:54;;;;;;;;;;;13.90;95.20;;;;;;5113533;28;20014;-65
2022/11/17 02:04:20;;;;;;;;;;;;;;;;;;5101213;28;19931;-65
2022/11/17 02:06:46;;;;;;;;;;;13.80;95.20;;;;;;5113585;28;19928;-64
2022/11/17 02:09:11;;;;;;;;;;;13.70;95.20;;;;;;5111992;28;19935;-64
2022/11/17 02:11:37;;;;;;;;;;;14.00;95.30;;;;;;5112606;28;20288;-64
2022/11/17 02:14:04;;;;;;;;;;;13.80;95.20;;;;;;5092091;28;19969;-64
2022/11/17 02:16:29;;;;;;;;;;;13.90;95.20;;;;;;5112021;28;19931;-65
2022/11/17 02:18:55;;;;;;;;;;;13.90;95.20;;;;;;5113223;28;19927;-65
2022/11/17 02:21:39;;;;;;;;;;;13.90;95.20;;;;;;5111419;28;19977;-64
2022/11/17 02:24:05;;;;;;;;;;;;;;;;;;5112871;28;20280;-64
2022/11/17 02:26:34;;;;;;;;;;;13.90;95.20;;;;;;5112753;28;19967;-64
2022/11/17 02:29:12;;;;;;;;;;;13.80;95.20;;;;;;5113077;28;20010;-67
2022/11/17 02:31:38;;;;;;;;;;;;;;;;;;5107297;28;19947;-66
2022/11/17 02:34:05;;;;;;;;;;;13.60;95.10;;;;;;5112292;28;19924;-66
2022/11/17 02:36:45;;;;;;;;;;;14.00;95.20;;;;;;5071051;28;19930;-64
2022/11/17 02:39:13;;;;;;;;;;;13.80;95.10;;;;;;5116506;28;19923;-64
2022/11/17 02:41:39;;;;;;;;;;;13.80;95.10;;;;;;5114955;28;19924;-64
2022/11/17 02:44:15;;;;;;;;;;;13.50;95.10;;;;;;5118132;28;19927;-64
2022/11/17 02:46:54;;;;;;;;;;;13.90;95.10;;;;;;5115587;28;19923;-64
2022/11/17 02:49:21;;;;;;;;;;;13.60;95.00;;;;;;5116193;28;19977;-64
2022/11/17 02:51:47;;;;;;;;;;;13.70;95.00;;;;;;5114031;28;19946;-63
2022/11/17 02:54:12;;;;;;;;;;;13.70;95.10;;;;;;5114854;28;20403;-65
2022/11/17 02:56:38;;;;;;;;;;;;;;;;;;5115766;28;20018;-64
2022/11/17 02:59:04;;;;;;;;;;;13.80;95.00;;;;;;5114629;28;19930;-65
2022/11/17 03:01:33;;;;;;;;;;;13.80;95.10;;;;;;5098765;28;19923;-64
2022/11/17 03:04:06;;;;;;;;;;;13.70;95.00;;;;;;5116872;28;19919;-65
2022/11/17 03:06:50;;;;;;;;;;;13.70;95.00;;;;;;5115796;28;20342;-63
2022/11/17 03:09:35;;;;;;;;;;;13.70;94.90;;;;;;5114591;28;19932;-64
2022/11/17 03:12:04;;;;;;;;;;;13.70;95.00;;;;;;5116417;28;19923;-64
2022/11/17 03:14:31;;;;;;;;;;;13.70;95.00;;;;;;5116348;28;19969;-68
2022/11/17 03:17:01;;;;;;;;;;;13.60;94.90;;;;;;5099102;28;20266;-63
2022/11/17 03:19:45;;;;;;;;;;;13.70;94.50;;;;;;5098461;28;20783;-63
2022/11/17 03:22:11;;;;;;;;;;;13.70;94.90;;;;;;5111279;28;19980;-65
2022/11/17 03:24:38;;;;;;;;;;;13.40;94.80;;;;;;5114688;28;20324;-65
2022/11/17 03:27:08;;;;;;;;;;;13.70;94.90;;;;;;5098166;28;19949;-65
2022/11/17 03:29:34;;;;;;;;;;;;;;;;;;5097928;28;20293;-64
2022/11/17 03:32:01;;;;;;;;;;;13.60;94.80;;;;;;5115256;28;19924;-64
2022/11/17 03:34:28;;;;;;;;;;;13.70;94.90;;;;;;5114501;28;19942;-63
2022/11/17 03:36:54;;;;;;;;;;;13.80;95.00;;;;;;5081297;28;19930;-65
2022/11/17 03:39:25;;;;;;;;;;;13.60;94.90;;;;;;5098124;28;19924;-65
2022/11/17 03:41:53;;;;;;;;;;;13.50;94.90;;;;;;5097570;28;19930;-64
2022/11/17 03:44:19;;;;;;;;;;;13.50;94.90;;;;;;5116465;28;20304;-65
2022/11/17 03:46:44;;;;;;;;;;;13.50;94.90;;;;;;5096824;28;19924;-63
2022/11/17 03:49:18;;;;;;;;;;;13.40;94.90;;;;;;5116057;28;20495;-63
2022/11/17 03:51:44;;;;;;;;;;;;;;;;;;5114234;28;19924;-65
2022/11/17 03:54:09;;;;;;;;;;;13.40;94.90;;;;;;5113137;28;19956;-63
2022/11/17 03:56:55;;;;;;;;;;;13.50;94.90;;;;;;5097774;28;20018;-63
2022/11/17 03:59:23;;;;;;;;;;;13.70;95.00;;;;;;5127255;27;19924;-64
2022/11/17 04:01:48;;;;;;;;;;;13.60;94.90;;;;;;5097245;28;19924;-63
2022/11/17 04:04:15;;;;;;;;;;;13.60;95.00;;;;;;5094167;28;20365;-64
2022/11/17 04:06:40;;;;;;;;;;;13.30;94.90;;;;;;5092981;28;20376;-64
2022/11/17 04:09:06;;;;;;;;;;;13.50;94.90;;;;;;5115955;28;20015;-63
2022/11/17 04:17:00;;;;;;;;;;;13.60;95.00;;;;;;5110828;28;19923;-64
2022/11/17 04:19:26;;;;;;;;;;;13.40;95.00;;;;;;5097790;28;20407;-66
2022/11/17 04:21:51;;;;;;;;;;;13.40;95.00;;;;;;5096710;28;20385;-66
2022/11/17 04:24:17;;;;;;;;;;;13.70;95.10;;;;;;5115393;28;19924;-64
2022/11/17 04:29:27;;;;;;;;;;;13.60;95.00;;;;;;5115121;28;19946;-68
2022/11/17 04:31:53;;;;;;;;;;;13.50;95.00;;;;;;5114606;28;20006;-64
2022/11/17 04:34:18;;;;;;;;;;;13.40;95.00;;;;;;5114551;28;19992;-63
2022/11/17 04:36:44;;;;;;;;;;;13.50;95.00;;;;;;5113337;28;19969;-69
2022/11/17 04:39:13;;;;;;;;;;;13.60;95.00;;;;;;5097233;28;19924;-64
2022/11/17 04:41:56;;;;;;;;;;;13.30;94.90;;;;;;5113021;28;19924;-66
2022/11/17 04:44:22;;;;;;;;;;;13.40;94.90;;;;;;5100269;28;19923;-67
2022/11/17 04:46:48;;;;;;;;;;;13.50;95.00;;;;;;5113807;28;19930;-67
2022/11/17 04:49:14;;;;;;;;;;;13.50;94.90;;;;;;5113679;28;20367;-64
2022/11/17 04:51:40;;;;;;;;;;;13.20;94.80;;;;;;5115023;28;20289;-64
2022/11/17 04:54:06;;;;;;;;;;;13.40;94.90;;;;;;5115249;28;19928;-63
2022/11/17 04:56:32;;;;;;;;;;;;;;;;;;5114161;28;19923;-64
2022/11/17 04:58:58;;;;;;;;;;;;;;;;;;5113145;28;19924;-64
2022/11/17 05:01:24;;;;;;;;;;;13.20;94.90;;;;;;5110034;28;19930;-65
2022/11/17 05:03:50;;;;;;;;;;;13.40;94.90;;;;;;5081333;28;19920;-65
2022/11/17 05:06:17;;;;;;;;;;;13.20;94.90;;;;;;5108217;28;20288;-64
2022/11/17 05:08:43;;;;;;;;;;;13.30;94.90;;;;;;5113825;28;19924;-66
2022/11/17 05:13:53;;;;;;;;;;;13.30;94.90;;;;;;5098898;28;19924;-64
2022/11/17 05:19:04;;;;;;;;;;;13.20;94.90;;;;;;5106711;28;19931;-64
2022/11/17 05:21:29;;;;;;;;;;;13.10;94.80;;;;;;5096111;28;19931;-67
2022/11/17 05:23:55;;;;;;;;;;;;;;;;;;5113340;28;19927;-65
2022/11/17 05:26:22;;;;;;;;;;;13.00;94.80;;;;;;5113586;27;19924;-63
2022/11/17 05:28:47;;;;;;;;;;;13.20;94.90;;;;;;5093332;28;19931;-65
2022/11/17 05:31:14;;;;;;;;;;;13.10;94.90;;;;;;5112062;28;19924;-64
2022/11/17 05:33:40;;;;;;;;;;;13.40;94.90;;;;;;5096356;28;19930;-64
2022/11/17 05:36:05;;;;;;;;;;;13.40;94.90;;;;;;5113932;28;19927;-70
2022/11/17 05:38:31;;;;;;;;;;;13.30;94.90;;;;;;5112833;28;19924;-64
2022/11/17 05:40:57;;;;;;;;;;;13.20;94.90;;;;;;5095683;28;20009;-63
2022/11/17 05:43:22;;;;;;;;;;;13.30;94.90;;;;;;5112232;28;20300;-63
2022/11/17 05:45:48;;;;;;;;;;;13.30;94.90;;;;;;5092150;28;19924;-64
2022/11/17 05:48:13;;;;;;;;;;;13.00;94.90;;;;;;5093139;28;19928;-65
2022/11/17 05:50:39;;;;;;;;;;;13.20;95.00;;;;;;5103492;28;19924;-64
2022/11/17 05:53:05;;;;;;;;;;;13.00;94.90;;;;;;5112473;28;19946;-64
2022/11/17 05:55:30;;;;;;;;;;;13.30;95.00;;;;;;5113749;28;20317;-64
2022/11/17 05:57:57;;;;;;;;;;;13.10;94.90;;;;;;5114140;28;20373;-65
2022/11/17 06:00:23;;;;;;;;;;;13.20;94.90;;;;;;5113407;28;19924;-63
2022/11/17 06:02:58;;;;;;;;;;;13.40;95.00;;;;;;5111511;28;20460;-63
2022/11/17 06:05:24;;;;;;;;;;;13.00;94.90;;;;;;5111647;28;19930;-65
2022/11/17 06:07:50;;;;;;;;;;;13.10;94.90;;;;;;5094892;28;19928;-64
2022/11/17 06:10:16;;;;;;;;;;;13.10;94.90;;;;;;5108543;28;20308;-63
2022/11/17 06:12:42;;;;;;;;;;;;;;;;;;5094066;28;20369;-72
2022/11/17 06:15:08;;;;;;;;;;;;;;;;;;5109971;28;20385;-69
2022/11/17 06:17:34;;;;;;;;;;;13.20;95.00;;;;;;5113608;28;19930;-67
2022/11/17 06:20:00;;;;;;;;;;;;;;;;;;5111055;28;20372;-65
2022/11/17 06:22:26;;;;;;;;;;;13.30;95.00;;;;;;5111110;28;19934;-64
2022/11/17 06:24:52;;;;;;;;;;;;;;;;;;5094943;28;19923;-65
2022/11/17 06:27:18;;;;;;;;;;;13.30;95.10;;;;;;5111337;28;19930;-63
2022/11/17 06:29:43;;;;;;;;;;;13.10;95.00;;;;;;5113459;28;20416;-64
2022/11/17 06:32:09;;;;;;;;;;;13.10;95.00;;;;;;5113482;28;20346;-65
2022/11/17 06:34:35;;;;;;;;;;;13.00;95.00;;;;;;5113761;28;19924;-65
2022/11/17 06:37:00;;;;;;;;;;;13.20;95.00;;;;;;5112002;28;19923;-63
2022/11/17 06:39:26;;;;;;;;;;;13.20;95.10;;;;;;5113378;28;20403;-68
2022/11/17 06:41:51;;;;;;;;;;;12.90;94.90;;;;;;5111650;28;19959;-63
2022/11/17 06:44:17;;;;;;;;;;;13.20;95.00;;;;;;5112190;28;19924;-64
2022/11/17 06:46:43;;;;;;;;;;;13.10;95.00;;;;;;5110172;28;19942;-64
2022/11/17 06:49:08;;;;;;;;;;;13.00;95.00;;;;;;5112855;28;19931;-64
2022/11/17 06:51:34;;;;;;;;;;;13.10;95.00;;;;;;5112952;28;20002;-64
2022/11/17 06:54:00;;;;;;;;;;;13.10;94.90;;;;;;5111097;28;19924;-66
2022/11/17 06:56:26;;;;;;;;;;;13.10;95.00;;;;;;5111272;28;20416;-64
2022/11/17 06:58:52;;;;;;;;;;;13.20;95.00;;;;;;5093899;28;20330;-67
2022/11/17 07:01:18;;;;;;;;;;;13.00;95.00;;;;;;5091649;28;19933;-65
2022/11/17 07:03:43;;;;;;;;;;;13.10;95.00;;;;;;5112986;28;19927;-68
2022/11/17 07:06:09;;;;;;;;;;;13.00;95.00;;;;;;5111547;28;19931;-64
2022/11/17 07:08:35;;;;;;;;;;;13.00;95.00;;;;;;5110298;28;19927;-66
2022/11/17 07:11:01;;;;;;;;;;;;;;;;;;5108772;28;19947;-67
2022/11/17 07:13:26;;;;;;;;;;;13.20;95.10;;;;;;5094344;28;19924;-63
2022/11/17 07:15:52;;;;;;;;;;;13.10;94.80;;;;;;5093184;28;19924;-64
2022/11/17 07:18:18;;;;;;;;;;;13.00;95.00;;;;;;5094550;28;19924;-65
2022/11/17 07:20:44;;;;;;;;;;;13.00;95.00;;;;;;5111120;28;20399;-67
2022/11/17 07:23:10;;;;;;;;;;;;;;;;;;5115505;28;19924;-71
2022/11/17 07:25:36;;;;;;;;;;;13.00;95.00;;;;;;5114495;28;19932;-64
2022/11/17 07:28:02;;;;;;;;;;;;;;;;;;5115838;28;19924;-70
2022/11/17 07:30:27;;;;;;;;;;;13.10;95.00;;;;;;5116662;28;20368;-63
2022/11/17 07:32:53;;;;;;;;;;;13.00;95.00;;;;;;5115755;28;19924;-66
2022/11/17 07:35:19;;;;;;;;;;;12.90;95.00;;;;;;5115461;28;20402;-70
2022/11/17 07:37:45;;;;;;;;;;;;;;;;;;5116415;28;20028;-66
2022/11/17 07:40:10;;;;;;;;;;;12.90;95.00;;;;;;5115864;28;20010;-66
2022/11/17 07:42:36;;;;;;;;;;;13.00;95.10;;;;;;5116516;28;19959;-71
2022/11/17 07:45:02;;;;;;;;;;;12.90;95.10;;;;;;5115244;28;20458;-64
2022/11/17 07:47:27;;;;;;;;;;;13.00;95.10;;;;;;5098686;28;19963;-65
2022/11/17 07:49:53;;;;;;;;;;;12.90;95.20;;;;;;5111740;28;19927;-63
2022/11/17 07:52:19;;;;;;;;;;;13.00;95.10;;;;;;5098817;28;19967;-65
2022/11/17 07:54:44;;;;;;;;;;;13.00;95.20;;;;;;5112147;28;20416;-64
2022/11/17 07:57:10;;;;;;;;;;;;;;;;;;5100032;28;19924;-68
2022/11/17 07:59:36;;;;;;;;;;;13.10;95.20;;;;;;5114388;28;20457;-65
2022/11/17 08:02:01;;;;;;;;;;;13.10;95.20;;;;;;5117073;28;19928;-64
2022/11/17 08:04:27;;;;;;;;;;;;;;;;;;5113129;28;19947;-66
2022/11/17 08:06:53;;;;;;;;;;;;;;;;;;5110809;28;20427;-67
2022/11/17 08:09:19;;;;;;;;;;;13.10;94.90;;;;;;5110707;28;19924;-66
2022/11/17 08:11:45;;;;;;;;;;;13.10;94.90;;;;;;5106726;28;20296;-76
2022/11/17 08:14:10;;;;;;;;;;;13.30;94.90;;;;;;5096946;28;19939;-68
2022/11/17 08:16:36;;;;;;;;;;;13.00;94.90;;;;;;5094869;28;19924;-65
2022/11/17 08:19:04;;;;;;;;;;;13.20;95.10;;;;;;5096515;28;19932;-67
2022/11/17 08:21:30;;;;;;;;;;;13.20;95.00;;;;;;5113123;28;19924;-66
2022/11/17 08:23:56;;;;;;;;;;;13.00;94.90;;;;;;5112566;28;19931;-65
2022/11/17 08:26:23;;;;;;;;;;;12.90;94.90;;;;;;5116424;28;20365;-65
2022/11/17 08:28:49;;;;;;;;;;;13.00;94.80;;;;;;5114201;28;20389;-66
2022/11/17 08:31:15;;;;;;;;;;;13.20;94.90;;;;;;5113002;28;20022;-67
2022/11/17 08:33:40;;;;;;;;;;;12.90;94.80;;;;;;5113891;28;20024;-70
2022/11/17 08:36:06;;;;;;;;;;;13.10;94.90;;;;;;5111138;28;20060;-66
2022/11/17 08:38:32;;;;;;;;;;;13.10;94.90;;;;;;5115331;28;20359;-76
2022/11/17 08:41:00;;;;;;;;;;;13.10;94.90;;;;;;5114608;28;19923;-74
2022/11/17 08:43:26;;;;;;;;;;;13.20;94.90;;;;;;5097124;28;19934;-72
2022/11/17 08:45:51;;;;;;;;;;;13.00;94.90;;;;;;5076312;28;19924;-68
2022/11/17 08:48:17;;;;;;;;;;;12.90;94.80;;;;;;5102121;28;20374;-67
2022/11/17 08:50:43;;;;;;;;;;;13.00;94.90;;;;;;5113793;28;19923;-65
2022/11/17 08:53:12;;;;;;;;;;;13.10;95.00;;;;;;5116061;28;19967;-66
2022/11/17 08:55:38;;;;;;;;;;;12.90;94.90;;;;;;5111850;28;19976;-65
2022/11/17 08:58:04;;;;;;;;;;;;;;;;;;5111990;28;20395;-73
2022/11/17 09:00:29;;;;;;;;;;;12.80;94.70;;;;;;5105989;28;19934;-65
2022/11/17 09:02:55;;;;;;;;;;;12.90;94.80;;;;;;5115884;28;19956;-66
2022/11/17 09:05:21;;;;;;;;;;;12.90;94.80;;;;;;5108539;28;19993;-63
2022/11/17 09:07:46;;;;;;;;;;;12.70;94.80;;;;;;5113696;28;20274;-64
2022/11/17 09:10:12;;;;;;;;;;;12.80;94.80;;;;;;5109156;28;20289;-64
2022/11/17 09:12:37;;;;;;;;;;;12.90;94.90;;;;;;5115656;28;20377;-64
2022/11/17 09:15:04;;;;;;;;;;;13.00;94.90;;;;;;5113528;28;19930;-66
2022/11/17 09:17:29;;;;;;;;;;;;;;;;;;5114728;28;19924;-67
2022/11/17 09:19:55;;;;;;;;;;;13.00;95.00;;;;;;5113518;28;20304;-64
2022/11/17 09:22:21;;;;;;;;;;;12.90;94.90;;;;;;5111503;28;19969;-63
2022/11/17 09:24:46;;;;;;;;;;;12.70;94.70;;;;;;5099553;28;19924;-64
2022/11/17 09:27:12;;;;;;;;;;;;;;;;;;5105713;28;19927;-65
2022/11/17 09:29:38;;;;;;;;;;;12.80;94.90;;;;;;5111610;27;19924;-64
2022/11/17 09:32:04;;;;;;;;;;;12.90;94.90;;;;;;5106106;27;19972;-64
2022/11/17 09:34:30;;;;;;;;;;;12.90;94.50;;;;;;5103724;27;19930;-70
2022/11/17 09:36:55;;;;;;;;;;;12.90;94.90;;;;;;5112092;28;20419;-64
2022/11/17 09:39:21;;;;;;;;;;;12.80;94.90;;;;;;5112632;28;19946;-65
2022/11/17 09:41:47;;;;;;;;;;;13.10;95.00;;;;;;5111349;28;19994;-63
2022/11/17 09:44:24;;;;;;;;;;;12.60;94.90;;;;;;5094278;28;19920;-64
2022/11/17 09:47:09;;;;;;;;;;;12.70;95.00;;;;;;5094225;28;20001;-64
2022/11/17 09:49:53;;;;;;;;;;;12.80;95.00;;;;;;5113640;28;20010;-63
2022/11/17 09:52:23;;;;;;;;;;;12.60;95.00;;;;;;5111717;28;20406;-64
2022/11/17 09:54:55;;;;;;;;;;;12.70;95.00;;;;;;5107056;28;20397;-63
2022/11/17 09:57:23;;;;;;;;;;;12.60;95.00;;;;;;5106411;28;19977;-64
2022/11/17 09:59:51;;;;;;;;;;;12.60;95.00;;;;;;5077139;28;19924;-67
2022/11/17 10:02:17;;;;;;;;;;;;;;;;;;5077772;28;19928;-64
2022/11/17 10:04:42;;;;;;;;;;;12.70;95.10;;;;;;5106973;28;19986;-65
2022/11/17 10:07:08;;;;;;;;;;;12.80;95.10;;;;;;5111707;28;19967;-64
2022/11/17 10:09:43;;;;;;;;;;;12.50;95.00;;;;;;5096199;28;19931;-68
2022/11/17 10:12:13;;;;;;;;;;;12.50;95.10;;;;;;5113133;28;19977;-69
2022/11/17 10:14:39;;;;;;;;;;;;;;;;;;5109576;28;20010;-64
2022/11/17 10:17:04;;;;;;;;;;;12.60;95.00;;;;;;5108796;28;20020;-64
2022/11/17 10:19:30;;;;;;;;;;;12.70;95.10;;;;;;5092644;28;19924;-68
2022/11/17 10:22:02;;;;;;;;;;;12.60;95.10;;;;;;5096048;28;20015;-72
2022/11/17 10:24:35;;;;;;;;;;;12.70;95.10;;;;;;5113103;28;20407;-63
2022/11/17 10:27:01;;;;;;;;;;;12.90;95.20;;;;;;5096156;28;19924;-62
2022/11/17 10:29:27;;;;;;;;;;;12.70;95.10;;;;;;5095932;28;19924;-63
2022/11/17 10:31:53;;;;;;;;;;;12.60;95.10;;;;;;5112030;28;19923;-64
2022/11/17 10:34:30;;;;;;;;;;;12.60;95.10;;;;;;5113915;28;19948;-63
2022/11/17 10:36:56;;;;;;;;;;;12.80;95.20;;;;;;5113081;28;19931;-64
2022/11/17 10:39:30;;;;;;;;;;;12.60;95.20;;;;;;5113404;28;20365;-65
2022/11/17 10:41:56;;;;;;;;;;;12.90;95.40;;;;;;5113141;28;19931;-65
2022/11/17 10:44:23;;;;;;;;;;;12.60;95.30;;;;;;5114005;28;20059;-65
2022/11/17 10:46:53;;;;;;;;;;;12.50;95.20;;;;;;5112605;28;19977;-67
2022/11/17 10:49:25;;;;;;;;;;;12.60;95.40;;;;;;5112536;28;19930;-68
2022/11/17 10:52:17;;;;;;;;;;;12.70;95.30;;;;;;5112700;28;19954;-67
2022/11/17 10:54:43;;;;;;;;;;;12.80;95.30;;;;;;5109776;28;19924;-66
2022/11/17 10:57:19;;;;;;;;;;;12.80;95.10;;;;;;5114983;28;19946;-68
2022/11/17 10:59:45;;;;;;;;;;;12.80;95.20;;;;;;5100012;28;20397;-68
2022/11/17 11:02:29;;;;;;;;;;;13.00;95.30;;;;;;5100051;28;20297;-67
2022/11/17 11:05:04;;;;;;;;;;;12.60;95.20;;;;;;5116460;28;20125;-67
2022/11/17 11:07:29;;;;;;;;;;;12.90;95.30;;;;;;5116162;28;19959;-70
2022/11/17 11:09:57;;;;;;;;;;;12.80;95.20;;;;;;5116393;28;19967;-67
2022/11/17 11:12:23;;;;;;;;;;;;;;;;;;5116840;28;20398;-68
2022/11/17 11:14:52;;;;;;;;;;;12.80;95.20;;;;;;5125425;27;19923;-65
2022/11/17 11:17:19;;;;;;;;;;;12.60;95.10;;;;;;5099867;28;20369;-66
2022/11/17 11:19:46;;;;;;;;;;;12.80;95.20;;;;;;5116502;28;19919;-68
2022/11/17 11:22:16;;;;;;;;;;;12.70;95.20;;;;;;5099162;28;20014;-67
2022/11/17 11:24:44;;;;;;;;;;;12.90;95.20;;;;;;5114355;28;20019;-65
2022/11/17 11:27:15;;;;;;;;;;;12.80;95.20;;;;;;5114713;28;19950;-65
2022/11/17 11:29:41;;;;;;;;;;;13.10;95.20;;;;;;5131418;27;19931;-67
2022/11/17 11:32:07;;;;;;;;;;;;;;;;;;5116081;28;19924;-68
2022/11/17 11:35:02;;;;;;;;;;;12.80;95.10;;;;;;5116007;28;19946;-68
2022/11/17 11:37:51;;;;;;;;;;;12.90;95.10;;;;;;5093620;28;19924;-67
2022/11/17 11:40:20;;;;;;;;;;;12.60;95.10;;;;;;5108180;28;19923;-65
2022/11/17 11:42:51;;;;;;;;;;;13.00;95.20;;;;;;5133015;27;19924;-64
2022/11/17 11:45:18;;;;;;;;;;;12.70;95.10;;;;;;5116032;28;20359;-65
2022/11/17 11:47:44;;;;;;;;;;;;;;;;;;5098550;28;20307;-65
2022/11/17 11:50:14;;;;;;;;;;;12.70;95.10;;;;;;5114621;28;19931;-64
2022/11/17 11:52:42;;;;;;;;;;;12.60;94.90;;;;;;5115727;28;20018;-64
2022/11/17 11:55:08;;;;;;;;;;;;;;;;;;5113165;27;20395;-64
2022/11/17 11:57:38;;;;;;;;;;;12.70;94.70;;;;;;5112009;28;19923;-63
2022/11/17 12:00:05;;;;;;;;;;;12.40;95.00;;;;;;5102553;28;19970;-63
2022/11/17 12:02:34;;;;;;;;;;;12.50;95.10;;;;;;5100481;28;20085;-64
2022/11/17 12:05:07;;;;;;;;;;;12.70;95.20;;;;;;5114250;28;19968;-64
2022/11/17 12:07:36;;;;;;;;;;;12.80;95.20;;;;;;5114993;28;19932;-64
2022/11/17 12:10:08;;;;;;;;;;;12.50;95.20;;;;;;5115095;28;19930;-65
2022/11/17 12:12:37;;;;;;;;;;;12.80;95.20;;;;;;5097916;28;19927;-63
2022/11/17 12:15:26;;;;;;;;;;;12.70;95.20;;;;;;5115243;28;19967;-64
2022/11/17 12:17:52;;;;;;;;;;;12.50;95.20;;;;;;5124806;27;20018;-63
2022/11/17 12:20:29;;;;;;;;;;;12.70;95.30;;;;;;5115521;28;19978;-64
2022/11/17 12:22:55;;;;;;;;;;;;;;;;;;5113972;28;19981;-64
2022/11/17 12:25:24;;;;;;;;;;;12.60;95.20;;;;;;5108361;28;19924;-64
2022/11/17 12:27:51;;;;;;;;;;;12.70;95.30;;;;;;5094724;28;19931;-63
2022/11/17 12:30:32;;;;;;;;;;;12.90;95.40;;;;;;5114879;28;19931;-63
2022/11/17 12:33:03;;;;;;;;;;;12.60;95.40;;;;;;5131555;27;19946;-64
2022/11/17 12:35:29;;;;;;;;;;;12.70;95.40;;;;;;5098440;28;19972;-67
2022/11/17 12:38:16;;;;;;;;;;;12.40;95.30;;;;;;5096921;28;19932;-63
2022/11/17 12:40:48;;;;;;;;;;;12.50;95.40;;;;;;5114872;28;19931;-64
2022/11/17 12:43:14;;;;;;;;;;;;;;;;;;5114661;28;19978;-64
2022/11/17 12:45:59;;;;;;;;;;;12.50;95.40;;;;;;5131897;27;19950;-63
2022/11/17 12:48:25;;;;;;;;;;;12.60;95.50;;;;;;5114218;28;19928;-64
2022/11/17 12:51:11;;;;;;;;;;;12.50;95.50;;;;;;5115218;28;19924;-63
2022/11/17 12:53:37;;;;;;;;;;;;;;;;;;5087033;28;20289;-63
2022/11/17 12:56:11;;;;;;;;;;;12.50;95.50;;;;;;5128080;27;19924;-63
2022/11/17 12:58:37;;;;;;;;;;;;;;;;;;5114657;28;19931;-63
2022/11/17 13:01:16;;;;;;;;;;;12.70;95.50;;;;;;5115618;28;20014;-64
2022/11/17 13:03:51;;;;;;;;;;;12.60;95.50;;;;;;5113234;28;19931;-63
2022/11/17 13:06:17;;;;;;;;;;;12.50;95.50;;;;;;5113832;28;19971;-64
2022/11/17 13:09:01;;;;;;;;;;;12.70;95.60;;;;;;5097237;28;20408;-63
2022/11/17 13:11:27;;;;;;;;;;;12.60;95.60;;;;;;5115761;28;20339;-63
2022/11/17 13:14:06;;;;;;;;;;;12.60;95.60;;;;;;5095757;28;19930;-64
2022/11/17 13:16:32;;;;;;;;;;;12.50;95.60;;;;;;5114435;28;20281;-62
2022/11/17 13:18:57;;;;;;;;;;;12.70;95.60;;;;;;5114128;28;19923;-64
2022/11/17 13:21:23;;;;;;;;;;;;;;;;;;5096309;28;19931;-64
2022/11/17 13:23:49;;;;;;;;;;;12.70;95.70;;;;;;5113594;28;19924;-65
2022/11/17 13:26:15;;;;;;;;;;;;;;;;;;5113842;28;20027;-66
2022/11/17 13:28:40;;;;;;;;;;;12.80;95.80;;;;;;5113265;28;19930;-65
2022/11/17 13:31:16;;;;;;;;;;;12.40;95.70;;;;;;5096285;28;19924;-64
2022/11/17 13:33:42;;;;;;;;;;;12.70;95.80;;;;;;5096853;28;19931;-63
2022/11/17 13:36:18;;;;;;;;;;;12.60;95.80;;;;;;5096742;28;19924;-63
2022/11/17 13:38:50;;;;;;;;;;;12.70;95.80;;;;;;5112504;28;19966;-65
2022/11/17 13:41:16;;;;;;;;;;;12.70;95.90;;;;;;5113635;28;19927;-63
2022/11/17 13:43:44;;;;;;;;;;;12.60;95.80;;;;;;5114010;28;19923;-63
2022/11/17 13:46:10;;;;;;;;;;;12.40;95.80;;;;;;5096979;28;19924;-64
2022/11/17 13:48:36;;;;;;;;;;;12.60;95.90;;;;;;5112763;27;19924;-63
2022/11/17 13:51:21;;;;;;;;;;;12.40;95.80;;;;;;5092430;28;19924;-63
2022/11/17 13:53:56;;;;;;;;;;;12.50;95.80;;;;;;5094939;28;20007;-65
2022/11/17 13:56:23;;;;;;;;;;;;;;;;;;5095534;28;19956;-63
2022/11/17 13:58:49;;;;;;;;;;;12.60;95.80;;;;;;5120645;27;19978;-66
2022/11/17 14:01:14;;;;;;;;;;;12.50;95.90;;;;;;5113364;28;19974;-65
2022/11/17 14:03:40;;;;;;;;;;;12.60;95.90;;;;;;5096581;28;19924;-69
2022/11/17 14:06:06;;;;;;;;;;;;;;;;;;5113550;28;19947;-67
2022/11/17 14:08:32;;;;;;;;;;;12.60;95.90;;;;;;5129127;27;19924;-67
2022/11/17 14:11:13;;;;;;;;;;;12.60;95.90;;;;;;5109099;28;20415;-73
2022/11/17 14:13:39;;;;;;;;;;;;;;;;;;5108290;28;19924;-67
2022/11/17 14:16:05;;;;;;;;;;;12.60;95.90;;;;;;5114300;28;20449;-68
2022/11/17 14:18:37;;;;;;;;;;;12.60;95.90;;;;;;5112444;28;19930;-65
2022/11/17 14:21:03;;;;;;;;;;;;;;;;;;5096479;28;19924;-65
2022/11/17 14:23:28;;;;;;;;;;;12.40;95.80;;;;;;5112836;28;19931;-64
2022/11/17 14:25:54;;;;;;;;;;;12.70;95.90;;;;;;5110622;28;20444;-65
2022/11/17 14:28:21;;;;;;;;;;;12.70;95.90;;;;;;5109120;28;19924;-64
2022/11/17 14:30:50;;;;;;;;;;;12.40;95.90;;;;;;5114310;28;19973;-63
2022/11/17 14:33:16;;;;;;;;;;;12.30;95.90;;;;;;5120934;27;19984;-64
2022/11/17 14:35:41;;;;;;;;;;;12.70;95.90;;;;;;5118059;28;19928;-65
2022/11/17 14:38:17;;;;;;;;;;;12.50;96.00;;;;;;5118290;28;19924;-63
2022/11/17 14:40:43;;;;;;;;;;;12.50;96.00;;;;;;5118647;28;19925;-65
2022/11/17 14:43:09;;;;;;;;;;;12.50;96.00;;;;;;5120831;28;19931;-66
2022/11/17 14:45:34;;;;;;;;;;;12.70;96.10;;;;;;5120871;28;19928;-65
2022/11/17 14:48:06;;;;;;;;;;;12.30;96.10;;;;;;5121105;28;19976;-66
2022/11/17 14:50:32;;;;;;;;;;;;;;;;;;5119616;28;19923;-65
2022/11/17 14:52:58;;;;;;;;;;;12.60;96.00;;;;;;5119927;28;19970;-70
2022/11/17 14:55:23;;;;;;;;;;;12.10;96.00;;;;;;5120615;28;19928;-64
2022/11/17 14:57:49;;;;;;;;;;;11.90;96.10;;;;;;5121300;27;19924;-66
2022/11/17 15:00:16;;;;;;;;;;;12.10;96.30;;;;;;5121576;28;19930;-65